createdAt,value
2018-07-26T00:01:54.186Z,8.05
2018-07-26T00:04:22.676Z,7.53
2018-07-26T00:06:51.421Z,7.78
2018-07-26T00:09:20.374Z,7.72
2018-07-26T00:11:49.027Z,7.70
2018-07-26T00:14:17.872Z,7.60
2018-07-26T00:16:46.920Z,8.20
2018-07-26T00:19:16.288Z,7.55
2018-07-26T00:21:44.955Z,8.23
2018-07-26T00:24:13.588Z,9.10
2018-07-26T00:26:42.313Z,7.72
2018-07-26T00:29:11.230Z,9.58
2018-07-26T00:31:39.658Z,7.97
2018-07-26T00:34:08.377Z,8.75
2018-07-26T00:36:37.138Z,9.70
2018-07-26T00:39:09.000Z,9.55
2018-07-26T00:41:37.936Z,8.93
2018-07-26T00:44:07.181Z,9.75
2018-07-26T00:46:35.671Z,10.75
2018-07-26T00:49:04.445Z,8.73
2018-07-26T00:51:33.598Z,9.43
2018-07-26T00:54:02.927Z,9.70
2018-07-26T00:56:31.377Z,10.90
2018-07-26T00:59:00.097Z,9.93
2018-07-26T01:01:28.796Z,9.93
2018-07-26T01:03:57.476Z,9.95
2018-07-26T01:06:25.933Z,11.12
2018-07-26T01:08:54.585Z,10.13
2018-07-26T01:11:23.237Z,10.67
2018-07-26T01:13:51.908Z,10.03
2018-07-26T01:16:20.775Z,10.23
2018-07-26T01:18:49.237Z,9.60
2018-07-26T01:21:18.285Z,9.60
2018-07-26T01:23:46.735Z,12.10
2018-07-26T01:26:15.196Z,10.85
2018-07-26T01:28:44.492Z,11.48
2018-07-26T01:31:13.313Z,10.53
2018-07-26T01:33:42.192Z,11.30
2018-07-26T01:36:11.001Z,9.30
2018-07-26T01:38:39.465Z,10.00
2018-07-26T01:41:08.047Z,9.88
2018-07-26T01:43:51.150Z,10.43
2018-07-26T01:46:21.170Z,11.17
2018-07-26T01:48:50.045Z,10.27
2018-07-26T01:51:18.985Z,11.97
2018-07-26T01:53:47.580Z,10.48
2018-07-26T01:56:16.455Z,10.45
2018-07-26T01:58:45.325Z,9.98
2018-07-26T02:01:14.470Z,9.75
2018-07-26T02:03:42.932Z,9.90
2018-07-26T02:06:11.784Z,10.93
2018-07-26T02:08:40.502Z,9.80
2018-07-26T02:11:08.958Z,10.72
2018-07-26T02:13:38.065Z,10.10
2018-07-26T02:16:07.045Z,9.53
2018-07-26T02:18:36.161Z,9.90
2018-07-26T02:21:05.108Z,11.48
2018-07-26T02:23:33.617Z,9.40
2018-07-26T02:26:02.538Z,11.57
2018-07-26T02:28:31.536Z,9.70
2018-07-26T02:31:00.039Z,10.70
2018-07-26T02:33:28.917Z,9.63
2018-07-26T02:35:58.355Z,11.12
2018-07-26T02:38:26.914Z,9.70
2018-07-26T02:40:55.870Z,9.65
2018-07-26T02:43:24.726Z,9.15
2018-07-26T02:45:53.229Z,9.03
2018-07-26T02:48:22.038Z,9.77
2018-07-26T02:50:51.109Z,9.30
2018-07-26T02:53:19.996Z,10.23
2018-07-26T02:55:48.465Z,9.83
2018-07-26T02:58:17.157Z,10.05
2018-07-26T03:00:45.648Z,10.93
2018-07-26T03:03:14.212Z,9.30
2018-07-26T03:05:43.308Z,9.00
2018-07-26T03:08:12.022Z,9.65
2018-07-26T03:10:40.698Z,9.50
2018-07-26T03:13:09.572Z,8.73
2018-07-26T03:15:38.070Z,9.73
2018-07-26T03:18:06.866Z,10.35
2018-07-26T03:20:35.601Z,9.13
2018-07-26T03:23:04.056Z,8.73
2018-07-26T03:25:32.657Z,9.17
2018-07-26T03:28:01.682Z,8.43
2018-07-26T03:30:30.193Z,9.43
2018-07-26T03:32:58.649Z,8.88
2018-07-26T03:35:27.533Z,9.83
2018-07-26T03:37:56.395Z,9.35
2018-07-26T03:40:24.833Z,9.10
2018-07-26T03:42:54.128Z,9.58
2018-07-26T03:45:22.687Z,8.20
2018-07-26T03:47:51.102Z,8.88
2018-07-26T03:50:20.089Z,8.13
2018-07-26T03:52:49.022Z,7.95
2018-07-26T03:55:17.429Z,7.95
2018-07-26T03:57:46.558Z,8.80
2018-07-26T04:00:15.313Z,8.25
2018-07-26T04:02:44.048Z,10.95
2018-07-26T04:05:12.870Z,7.87
2018-07-26T04:07:41.313Z,9.85
2018-07-26T04:10:09.836Z,8.13
2018-07-26T04:12:38.921Z,8.10
2018-07-26T04:15:08.079Z,8.08
2018-07-26T04:17:37.037Z,8.30
2018-07-26T04:20:05.937Z,8.35
2018-07-26T04:22:34.530Z,8.25
2018-07-26T04:25:02.961Z,8.13
2018-07-26T04:27:31.864Z,8.65
2018-07-26T04:30:00.299Z,8.30
2018-07-26T04:32:29.157Z,7.83
2018-07-26T04:34:58.013Z,9.55
2018-07-26T04:37:26.533Z,7.65
2018-07-26T04:39:55.209Z,7.40
2018-07-26T04:42:23.781Z,8.23
2018-07-26T04:44:52.257Z,7.03
2018-07-26T04:47:20.967Z,7.10
2018-07-26T04:49:50.481Z,7.70
2018-07-26T04:52:19.378Z,7.80
2018-07-26T04:54:50.619Z,6.67
2018-07-26T04:57:20.453Z,9.60
2018-07-26T04:59:48.936Z,9.55
2018-07-26T05:02:17.385Z,6.83
2018-07-26T05:04:46.345Z,9.00
2018-07-26T05:07:15.027Z,8.50
2018-07-26T05:09:43.853Z,7.30
2018-07-26T05:12:12.613Z,5.95
2018-07-26T05:14:41.418Z,8.28
2018-07-26T05:17:10.113Z,8.15
2018-07-26T05:19:39.018Z,5.50
2018-07-26T05:22:07.777Z,6.20
2018-07-26T05:24:36.457Z,9.55
2018-07-26T05:27:05.858Z,6.28
2018-07-26T05:29:34.337Z,6.37
2018-07-26T05:32:03.141Z,5.55
2018-07-26T05:34:32.014Z,5.70
2018-07-26T05:37:00.513Z,5.65
2018-07-26T05:39:29.422Z,5.53
2018-07-26T05:41:59.294Z,6.53
2018-07-26T05:44:27.793Z,6.45
2018-07-26T05:46:56.849Z,6.67
2018-07-26T05:49:26.076Z,9.40
2018-07-26T05:51:54.529Z,5.17
2018-07-26T05:54:23.271Z,8.18
2018-07-26T05:56:52.039Z,5.37
2018-07-26T05:59:20.915Z,8.73
2018-07-26T06:01:50.310Z,7.80
2018-07-26T06:04:19.097Z,5.87
2018-07-26T06:06:47.617Z,8.15
2018-07-26T06:09:16.101Z,6.03
2018-07-26T06:11:44.765Z,5.30
2018-07-26T06:14:13.593Z,5.45
2018-07-26T06:16:42.655Z,5.50
2018-07-26T06:19:11.744Z,5.12
2018-07-26T06:21:40.229Z,6.50
2018-07-26T06:24:08.965Z,5.80
2018-07-26T06:26:37.771Z,4.95
2018-07-26T06:29:06.273Z,7.70
2018-07-26T06:31:35.297Z,7.00
2018-07-26T06:34:04.106Z,5.33
2018-07-26T06:36:32.605Z,7.33
2018-07-26T06:39:01.129Z,6.25
2018-07-26T06:41:30.317Z,7.92
2018-07-26T06:43:59.190Z,4.45
2018-07-26T06:46:27.701Z,5.85
2018-07-26T06:48:57.581Z,8.05
2018-07-26T06:51:26.289Z,8.93
2018-07-26T06:53:54.753Z,14.75
2018-07-26T06:56:24.152Z,6.90
2018-07-26T06:58:53.014Z,10.23
2018-07-26T07:01:21.878Z,7.33
2018-07-26T07:03:51.025Z,8.05
2018-07-26T07:06:19.606Z,6.30
2018-07-26T07:08:48.305Z,5.15
2018-07-26T07:11:16.880Z,4.70
2018-07-26T07:13:45.610Z,5.30
2018-07-26T07:16:14.193Z,4.45
2018-07-26T07:18:43.062Z,5.70
2018-07-26T07:21:11.569Z,5.67
2018-07-26T07:23:40.409Z,4.90
2018-07-26T07:26:09.195Z,5.45
2018-07-26T07:28:37.600Z,9.33
2018-07-26T07:31:06.071Z,6.00
2018-07-26T07:33:35.147Z,5.67
2018-07-26T07:36:03.895Z,5.58
2018-07-26T07:38:32.347Z,4.97
2018-07-26T07:41:01.234Z,4.35
2018-07-26T07:43:29.913Z,4.22
2018-07-26T07:45:58.485Z,5.15
2018-07-26T07:48:28.002Z,6.33
2018-07-26T07:50:56.617Z,5.03
2018-07-26T07:53:25.062Z,5.17
2018-07-26T07:55:53.634Z,6.37
2018-07-26T07:58:22.765Z,5.00
2018-07-26T08:00:51.617Z,6.28
2018-07-26T08:03:21.472Z,7.65
2018-07-26T08:05:49.929Z,4.17
2018-07-26T08:08:18.683Z,5.08
2018-07-26T08:10:47.153Z,4.37
2018-07-26T08:13:15.697Z,5.03
2018-07-26T08:15:44.373Z,4.17
2018-07-26T08:18:13.269Z,4.65
2018-07-26T08:20:41.757Z,6.53
2018-07-26T08:23:10.226Z,3.62
2018-07-26T08:25:38.986Z,5.10
2018-07-26T08:28:07.453Z,3.75
2018-07-26T08:30:36.165Z,6.33
2018-07-26T08:33:05.135Z,6.37
2018-07-26T08:35:33.598Z,3.98
2018-07-26T08:38:02.045Z,6.15
2018-07-26T08:40:30.942Z,3.62
2018-07-26T08:42:59.425Z,4.17
2018-07-26T08:45:27.914Z,3.40
2018-07-26T08:47:56.660Z,7.25
2018-07-26T08:50:25.213Z,3.52
2018-07-26T08:52:54.018Z,4.35
2018-07-26T08:55:23.019Z,4.53
2018-07-26T08:57:51.653Z,7.70
2018-07-26T09:00:20.437Z,5.78
2018-07-26T09:02:49.397Z,5.92
2018-07-26T09:05:18.018Z,5.55
2018-07-26T09:07:46.565Z,4.55
2018-07-26T09:10:16.432Z,3.55
2018-07-26T09:12:44.989Z,5.53
2018-07-26T09:15:13.456Z,6.87
2018-07-26T09:17:43.853Z,8.25
2018-07-26T09:20:12.729Z,3.95
2018-07-26T09:22:41.282Z,5.22
2018-07-26T09:25:09.853Z,4.03
2018-07-26T09:27:38.299Z,5.87
2018-07-26T09:30:08.505Z,3.70
2018-07-26T09:32:37.037Z,10.82
2018-07-26T09:35:05.571Z,3.37
2018-07-26T09:37:34.129Z,3.83
2018-07-26T09:40:02.709Z,2.92
2018-07-26T09:42:31.400Z,4.50
2018-07-26T09:44:59.841Z,4.67
2018-07-26T09:47:28.459Z,3.52
2018-07-26T09:49:56.927Z,7.40
2018-07-26T09:52:25.499Z,5.05
2018-07-26T09:54:54.084Z,4.95
2018-07-26T09:57:22.672Z,3.25
2018-07-26T09:59:51.572Z,5.35
2018-07-26T10:02:21.081Z,4.75
2018-07-26T10:04:49.821Z,3.65
2018-07-26T10:07:18.329Z,5.65
2018-07-26T10:09:47.733Z,6.78
2018-07-26T10:12:16.198Z,8.35
2018-07-26T10:14:44.637Z,5.70
2018-07-26T10:17:13.294Z,3.40
2018-07-26T10:19:41.845Z,8.90
2018-07-26T10:22:10.595Z,3.10
2018-07-26T10:24:39.593Z,3.60
2018-07-26T10:27:08.117Z,6.10
2018-07-26T10:29:36.606Z,3.70
2018-07-26T10:32:05.645Z,5.92
2018-07-26T10:34:34.792Z,2.85
2018-07-26T10:37:03.277Z,3.75
2018-07-26T10:39:32.004Z,4.30
2018-07-26T10:42:00.465Z,4.28
2018-07-26T10:44:28.969Z,4.15
2018-07-26T10:46:58.068Z,2.85
2018-07-26T10:49:26.560Z,4.50
2018-07-26T10:51:55.670Z,4.87
2018-07-26T10:54:24.405Z,3.30
2018-07-26T10:56:52.829Z,3.08
2018-07-26T10:59:21.344Z,3.50
2018-07-26T11:01:50.458Z,3.50
2018-07-26T11:04:19.077Z,3.35
2018-07-26T11:06:47.533Z,2.85
2018-07-26T11:09:16.633Z,3.92
2018-07-26T11:11:45.129Z,3.50
2018-07-26T11:14:13.661Z,4.70
2018-07-26T11:16:42.310Z,3.83
2018-07-26T11:19:10.746Z,6.00
2018-07-26T11:21:39.241Z,3.35
2018-07-26T11:24:08.212Z,4.25
2018-07-26T11:26:36.765Z,3.08
2018-07-26T11:29:05.241Z,4.67
2018-07-26T11:31:34.069Z,3.80
2018-07-26T11:34:03.076Z,6.67
2018-07-26T11:36:31.553Z,3.80
2018-07-26T11:39:00.428Z,3.37
2018-07-26T11:41:29.359Z,3.45
2018-07-26T11:43:57.783Z,5.22
2018-07-26T11:46:26.417Z,3.02
2018-07-26T11:48:55.381Z,3.52
2018-07-26T11:51:23.825Z,3.83
2018-07-26T11:53:52.653Z,4.22
2018-07-26T11:56:21.096Z,4.10
2018-07-26T11:58:49.695Z,6.22
2018-07-26T12:01:18.279Z,5.50
2018-07-26T12:03:46.721Z,5.28
2018-07-26T12:06:15.426Z,3.75
2018-07-26T12:08:43.886Z,6.47
2018-07-26T12:11:12.562Z,4.65
2018-07-26T12:13:40.989Z,5.25
2018-07-26T12:16:09.932Z,4.92
2018-07-26T12:18:38.368Z,7.10
2018-07-26T12:21:06.848Z,4.10
2018-07-26T12:23:35.485Z,6.28
2018-07-26T12:26:04.066Z,3.77
2018-07-26T12:28:32.487Z,3.52
2018-07-26T12:31:01.597Z,4.03
2018-07-26T12:33:30.054Z,3.92
2018-07-26T12:35:58.561Z,5.15
2018-07-26T12:38:27.034Z,6.40
2018-07-26T12:40:55.492Z,4.90
2018-07-26T12:43:23.990Z,3.35
2018-07-26T12:45:52.646Z,3.35
2018-07-26T12:48:21.237Z,3.30
2018-07-26T12:50:49.709Z,4.40
2018-07-26T12:53:18.533Z,2.90
2018-07-26T12:55:47.042Z,4.28
2018-07-26T12:58:15.473Z,3.92
2018-07-26T13:00:43.941Z,4.28
2018-07-26T13:03:12.386Z,3.40
2018-07-26T13:05:41.294Z,3.40
2018-07-26T13:08:10.272Z,3.22
2018-07-26T13:10:38.695Z,4.47
2018-07-26T13:13:07.167Z,3.83
2018-07-26T13:15:36.106Z,3.60
2018-07-26T13:18:04.598Z,5.60
2018-07-26T13:20:33.099Z,4.20
2018-07-26T13:23:01.730Z,6.10
2018-07-26T13:25:30.355Z,3.52
2018-07-26T13:27:58.813Z,4.28
2018-07-26T13:30:27.337Z,4.40
2018-07-26T13:32:55.778Z,3.58
2018-07-26T13:35:24.334Z,4.42
2018-07-26T13:37:53.097Z,3.83
2018-07-26T13:40:21.953Z,3.05
2018-07-26T13:42:50.353Z,7.12
2018-07-26T13:45:19.235Z,3.87
2018-07-26T13:47:47.663Z,4.00
2018-07-26T13:50:16.064Z,4.47
2018-07-26T13:52:44.634Z,3.87
2018-07-26T13:55:13.049Z,4.10
2018-07-26T13:57:41.492Z,9.53
2018-07-26T14:00:11.558Z,3.98
2018-07-26T14:02:40.014Z,4.25
2018-07-26T14:05:08.477Z,3.42
2018-07-26T14:07:37.038Z,3.30
2018-07-26T14:10:07.403Z,3.95
2018-07-26T14:12:36.745Z,3.95
2018-07-26T14:15:06.497Z,3.67
2018-07-26T14:17:35.058Z,4.35
2018-07-26T14:20:03.572Z,3.65
2018-07-26T14:22:32.509Z,4.47
2018-07-26T14:25:01.218Z,4.10
2018-07-26T14:27:30.310Z,3.87
2018-07-26T14:29:59.181Z,5.35
2018-07-26T14:32:27.911Z,4.53
2018-07-26T14:34:56.637Z,3.60
2018-07-26T14:37:25.362Z,3.50
2018-07-26T14:39:53.891Z,4.87
2018-07-26T14:42:22.485Z,4.05
2018-07-26T14:44:50.986Z,6.62
2018-07-26T14:47:19.709Z,6.53
2018-07-26T14:49:48.185Z,5.42
2018-07-26T14:52:16.662Z,4.08
2018-07-26T14:54:45.102Z,4.28
2018-07-26T14:57:13.573Z,5.37
2018-07-26T14:59:42.012Z,3.80
2018-07-26T15:02:10.595Z,3.47
2018-07-26T15:04:39.173Z,3.35
2018-07-26T15:07:07.650Z,4.55
2018-07-26T15:09:36.133Z,3.90
2018-07-26T15:12:04.763Z,4.00
2018-07-26T15:14:33.363Z,4.65
2018-07-26T15:17:01.814Z,5.92
2018-07-26T15:19:30.321Z,3.77
2018-07-26T15:21:59.283Z,4.28
2018-07-26T15:24:28.790Z,4.90
2018-07-26T15:26:57.364Z,3.80
2018-07-26T15:29:26.469Z,6.35
2018-07-26T15:31:54.889Z,4.10
2018-07-26T15:34:23.361Z,3.58
2018-07-26T15:36:52.043Z,4.70
2018-07-26T15:39:21.034Z,5.70
2018-07-26T15:41:49.617Z,3.35
2018-07-26T15:44:18.165Z,3.83
2018-07-26T15:46:53.265Z,4.12
2018-07-26T15:49:21.924Z,4.00
2018-07-26T15:51:50.381Z,4.20
2018-07-26T15:54:18.847Z,5.60
2018-07-26T15:56:47.505Z,3.50
2018-07-26T15:59:15.954Z,3.67
2018-07-26T16:01:44.511Z,3.65
2018-07-26T16:04:12.999Z,3.65
2018-07-26T16:06:41.489Z,5.53
2018-07-26T16:09:11.099Z,7.40
2018-07-26T16:11:39.753Z,4.15
2018-07-26T16:14:09.427Z,5.45
2018-07-26T16:16:37.952Z,4.10
2018-07-26T16:19:06.614Z,3.30
2018-07-26T16:21:35.533Z,5.08
2018-07-26T16:24:04.456Z,3.72
2018-07-26T16:26:33.121Z,4.15
2018-07-26T16:29:01.738Z,5.58
2018-07-26T16:31:30.710Z,4.45
2018-07-26T16:33:59.215Z,6.05
2018-07-26T16:36:27.645Z,5.42
2018-07-26T16:38:56.541Z,5.47
2018-07-26T16:41:25.008Z,3.77
2018-07-26T16:43:53.457Z,4.12
2018-07-26T16:46:22.001Z,6.00
2018-07-26T16:48:50.797Z,7.65
2018-07-26T16:51:19.310Z,7.22
2018-07-26T16:53:47.828Z,5.15
2018-07-26T16:56:16.442Z,10.85
2018-07-26T16:58:44.888Z,9.30
2018-07-26T17:01:13.694Z,6.00
2018-07-26T17:03:42.589Z,5.58
2018-07-26T17:06:11.037Z,5.42
2018-07-26T17:08:39.527Z,5.65
2018-07-26T17:11:08.570Z,6.45
2018-07-26T17:13:37.129Z,7.75
2018-07-26T17:16:05.931Z,7.17
2018-07-26T17:18:34.634Z,4.60
2018-07-26T17:21:03.158Z,3.65
2018-07-26T17:23:31.687Z,3.58
2018-07-26T17:26:00.190Z,4.33
2018-07-26T17:28:28.661Z,3.52
2018-07-26T17:30:57.205Z,4.40
2018-07-26T17:33:25.997Z,4.87
2018-07-26T17:35:54.698Z,4.75
2018-07-26T17:38:26.018Z,5.15
2018-07-26T17:40:54.774Z,6.95
2018-07-26T17:43:25.114Z,4.85
2018-07-26T17:45:53.586Z,4.72
2018-07-26T17:48:22.341Z,5.40
2018-07-26T17:50:50.821Z,4.75
2018-07-26T17:53:19.906Z,3.50
2018-07-26T17:55:48.382Z,5.80
2018-07-26T17:58:17.007Z,10.63
2018-07-26T18:00:45.681Z,5.97
2018-07-26T18:03:14.140Z,14.00
2018-07-26T18:05:42.613Z,6.22
2018-07-26T18:08:11.177Z,4.97
2018-07-26T18:10:40.525Z,6.22
2018-07-26T18:13:08.082Z,3.60
2018-07-26T18:15:36.524Z,3.60
2018-07-26T18:18:05.166Z,6.10
2018-07-26T18:20:33.799Z,3.90
2018-07-26T18:23:02.257Z,6.25
2018-07-26T18:25:31.038Z,3.67
2018-07-26T18:27:59.553Z,3.92
2018-07-26T18:30:29.213Z,3.55
2018-07-26T18:32:57.661Z,6.28
2018-07-26T18:35:26.289Z,3.00
2018-07-26T18:37:54.797Z,6.28
2018-07-26T18:40:23.253Z,4.58
2018-07-26T18:42:51.905Z,6.05
2018-07-26T18:45:20.788Z,6.40
2018-07-26T18:47:49.236Z,4.55
2018-07-26T18:50:17.993Z,5.08
2018-07-26T18:52:46.577Z,5.17
2018-07-26T18:55:15.026Z,3.77
2018-07-26T18:57:43.690Z,5.25
2018-07-26T19:00:13.635Z,4.20
2018-07-26T19:02:42.421Z,4.00
2018-07-26T19:05:11.007Z,4.33
2018-07-26T19:07:39.475Z,4.87
2018-07-26T19:10:09.909Z,6.37
2018-07-26T19:12:39.185Z,5.65
2018-07-26T19:15:12.058Z,3.75
2018-07-26T19:17:41.789Z,3.92
2018-07-26T19:20:11.717Z,4.17
2018-07-26T19:22:40.646Z,3.90
2018-07-26T19:25:10.014Z,5.65
2018-07-26T19:27:38.805Z,5.65
2018-07-26T19:30:09.658Z,7.65
2018-07-26T19:32:39.825Z,6.58
2018-07-26T19:35:08.310Z,5.08
2018-07-26T19:37:36.829Z,7.28
2018-07-26T19:40:07.238Z,6.92
2018-07-26T19:42:36.361Z,5.58
2018-07-26T19:45:06.057Z,5.35
2018-07-26T19:47:34.513Z,7.00
2018-07-26T19:50:03.715Z,4.42
2018-07-26T19:52:32.194Z,5.65
2018-07-26T19:55:00.642Z,4.70
2018-07-26T19:57:29.341Z,3.60
2018-07-26T19:59:58.225Z,6.72
2018-07-26T20:02:27.445Z,5.60
2018-07-26T20:04:56.215Z,6.87
2018-07-26T20:07:25.074Z,5.20
2018-07-26T20:09:53.716Z,7.67
2018-07-26T20:12:22.243Z,6.35
2018-07-26T20:14:50.957Z,7.20
2018-07-26T20:17:19.580Z,6.92
2018-07-26T20:19:48.090Z,4.97
2018-07-26T20:22:16.753Z,5.45
2018-07-26T20:24:45.500Z,5.67
2018-07-26T20:27:13.954Z,4.25
2018-07-26T20:29:42.533Z,5.85
2018-07-26T20:32:11.197Z,5.00
2018-07-26T20:34:39.813Z,5.55
2018-07-26T20:37:08.958Z,5.25
2018-07-26T20:39:37.482Z,5.35
2018-07-26T20:42:06.648Z,9.38
2018-07-26T20:44:35.104Z,6.50
2018-07-26T20:47:03.583Z,4.12
2018-07-26T20:49:32.023Z,4.22
2018-07-26T20:52:00.567Z,4.90
2018-07-26T20:54:29.181Z,8.10
2018-07-26T20:56:57.689Z,7.45
2018-07-26T20:59:27.009Z,4.70
2018-07-26T21:01:55.494Z,5.65
2018-07-26T21:04:24.158Z,6.87
2018-07-26T21:06:53.131Z,7.22
2018-07-26T21:09:21.609Z,8.40
2018-07-26T21:11:50.206Z,7.17
2018-07-26T21:14:18.659Z,13.00
2018-07-26T21:16:47.614Z,6.47
2018-07-26T21:19:16.694Z,10.82
2018-07-26T21:21:45.482Z,7.37
2018-07-26T21:24:14.431Z,4.65
2018-07-26T21:26:42.857Z,3.85
2018-07-26T21:29:11.350Z,5.28
2018-07-26T21:31:39.859Z,4.20
2018-07-26T21:34:09.517Z,4.30
2018-07-26T21:36:38.001Z,4.30
2018-07-26T21:39:09.049Z,4.97
2018-07-26T21:41:37.559Z,4.80
2018-07-26T21:44:06.765Z,5.90
2018-07-26T21:46:35.517Z,6.30
2018-07-26T21:49:04.182Z,7.67
2018-07-26T21:51:32.898Z,5.53
2018-07-26T21:54:01.812Z,5.60
2018-07-26T21:56:30.349Z,5.80
2018-07-26T21:58:59.081Z,5.75
2018-07-26T22:01:28.038Z,4.78
2018-07-26T22:03:56.658Z,6.58
2018-07-26T22:06:25.187Z,4.80
2018-07-26T22:08:53.713Z,6.12
2018-07-26T22:11:22.273Z,4.45
2018-07-26T22:13:50.707Z,3.85
2018-07-26T22:16:19.367Z,5.22
2018-07-26T22:18:47.939Z,8.40
2018-07-26T22:21:16.907Z,7.17
2018-07-26T22:23:45.469Z,8.80
2018-07-26T22:26:13.947Z,5.05
2018-07-26T22:28:42.433Z,6.90
2018-07-26T22:31:11.051Z,4.53
2018-07-26T22:33:39.546Z,4.45
2018-07-26T22:36:08.758Z,6.83
2018-07-26T22:38:37.993Z,7.53
2018-07-26T22:41:06.523Z,6.03
2018-07-26T22:43:35.430Z,6.08
2018-07-26T22:46:03.924Z,4.30
2018-07-26T22:48:32.397Z,6.80
2018-07-26T22:51:01.237Z,7.42
2018-07-26T22:53:30.065Z,7.67
2018-07-26T22:55:59.929Z,5.08
2018-07-26T22:58:28.541Z,8.08
2018-07-26T23:00:58.321Z,8.15
2018-07-26T23:03:27.064Z,6.37
2018-07-26T23:05:55.606Z,4.85
2018-07-26T23:08:24.266Z,6.78
2018-07-26T23:10:52.774Z,5.17
2018-07-26T23:13:21.630Z,6.17
2018-07-26T23:15:50.308Z,6.97
2018-07-26T23:18:18.830Z,6.58
2018-07-26T23:20:47.359Z,8.00
2018-07-26T23:23:16.177Z,8.20
2018-07-26T23:25:44.756Z,7.37
2018-07-26T23:28:13.217Z,6.55
2018-07-26T23:30:41.889Z,5.15
2018-07-26T23:33:11.342Z,6.00
2018-07-26T23:35:39.974Z,5.90
2018-07-26T23:38:08.445Z,8.30
2018-07-26T23:40:36.920Z,7.90
2018-07-26T23:43:05.793Z,6.08
2018-07-26T23:45:34.233Z,8.18
2018-07-26T23:48:03.581Z,9.65
2018-07-26T23:50:32.379Z,7.37
2018-07-26T23:53:00.821Z,9.08
2018-07-26T23:55:29.310Z,9.45
2018-07-26T23:57:58.142Z,7.50
